createdAt,value
2023-05-05T00:00:01.798Z,13.19
2023-05-05T00:00:33.974Z,13.19
2023-05-05T00:01:06.456Z,13.19
2023-05-05T00:01:41.249Z,13.19
2023-05-05T00:02:13.547Z,13.17
2023-05-05T00:02:45.884Z,13.14
2023-05-05T00:03:21.103Z,13.16
2023-05-05T00:03:53.740Z,13.14
2023-05-05T00:04:25.991Z,13.15
2023-05-05T00:05:00.789Z,13.14
2023-05-05T00:05:32.994Z,13.12
2023-05-05T00:06:05.779Z,13.11
2023-05-05T00:06:40.617Z,13.11
2023-05-05T00:07:12.781Z,13.10
2023-05-05T00:07:45.012Z,13.11
2023-05-05T00:08:20.057Z,13.11
2023-05-05T00:08:52.278Z,13.10
2023-05-05T00:09:24.468Z,13.11
2023-05-05T00:10:02.042Z,13.11
2023-05-05T00:10:34.245Z,13.10
2023-05-05T00:11:06.581Z,13.10
2023-05-05T00:11:38.905Z,13.11
2023-05-05T00:12:13.675Z,13.11
2023-05-05T00:12:45.918Z,13.09
2023-05-05T00:13:18.329Z,13.09
2023-05-05T00:13:53.535Z,13.09
2023-05-05T00:14:25.767Z,13.09
2023-05-05T00:14:58.104Z,13.10
2023-05-05T00:15:30.442Z,13.09
2023-05-05T00:16:05.165Z,13.07
2023-05-05T00:16:37.660Z,13.06
2023-05-05T00:17:10.111Z,13.07
2023-05-05T00:17:44.981Z,13.06
2023-05-05T00:18:18.941Z,13.06
2023-05-05T00:18:53.692Z,13.05
2023-05-05T00:19:25.882Z,13.05
2023-05-05T00:19:59.903Z,13.05
2023-05-05T00:20:32.110Z,13.06
2023-05-05T00:21:07.282Z,13.06
2023-05-05T00:21:39.439Z,13.06
2023-05-05T00:22:11.976Z,13.05
2023-05-05T00:22:44.179Z,13.06
2023-05-05T00:23:19.140Z,13.06
2023-05-05T00:23:51.631Z,13.07
2023-05-05T00:24:23.871Z,13.08
2023-05-05T00:25:01.220Z,13.08
2023-05-05T00:25:33.447Z,13.07
2023-05-05T00:26:05.709Z,13.07
2023-05-05T00:26:37.890Z,13.07
2023-05-05T00:27:13.421Z,13.07
2023-05-05T00:27:45.601Z,13.06
2023-05-05T00:28:17.873Z,13.07
2023-05-05T00:28:52.619Z,13.06
2023-05-05T00:29:24.824Z,13.04
2023-05-05T00:29:57.063Z,13.05
2023-05-05T00:30:31.967Z,13.03
2023-05-05T00:31:04.296Z,13.03
2023-05-05T00:31:36.944Z,13.03
2023-05-05T00:32:12.048Z,13.03
2023-05-05T00:32:44.341Z,13.03
2023-05-05T00:33:16.955Z,13.04
2023-05-05T00:33:51.787Z,13.03
2023-05-05T00:34:24.191Z,13.05
2023-05-05T00:34:56.702Z,13.04
2023-05-05T00:35:28.936Z,13.05
2023-05-05T00:36:03.729Z,13.06
2023-05-05T00:36:36.141Z,13.05
2023-05-05T00:37:08.396Z,13.03
2023-05-05T00:37:43.429Z,13.03
2023-05-05T00:38:15.617Z,13.03
2023-05-05T00:38:50.457Z,13.03
2023-05-05T00:39:22.735Z,13.03
2023-05-05T00:39:54.874Z,13.03
2023-05-05T00:40:32.717Z,13.05
2023-05-05T00:41:05.417Z,13.03
2023-05-05T00:41:37.615Z,13.05
2023-05-05T00:42:12.426Z,13.06
2023-05-05T00:42:46.548Z,13.07
2023-05-05T00:43:18.735Z,13.07
2023-05-05T00:43:53.472Z,13.09
2023-05-05T00:44:37.150Z,13.07
2023-05-05T00:45:10.677Z,13.06
2023-05-05T00:45:48.204Z,13.07
2023-05-05T00:46:24.597Z,13.07
2023-05-05T00:46:56.973Z,13.06
2023-05-05T00:47:32.017Z,13.08
2023-05-05T00:48:04.772Z,13.09
2023-05-05T00:48:36.982Z,13.09
2023-05-05T00:49:12.973Z,13.11
2023-05-05T00:49:45.834Z,13.11
2023-05-05T00:50:24.036Z,13.11
2023-05-05T00:50:56.688Z,13.10
2023-05-05T00:51:32.208Z,13.11
2023-05-05T00:52:05.584Z,13.12
2023-05-05T00:52:39.463Z,13.10
2023-05-05T00:53:15.111Z,13.12
2023-05-05T00:53:48.014Z,13.11
2023-05-05T00:54:20.252Z,13.12
2023-05-05T00:54:55.335Z,13.13
2023-05-05T00:55:30.789Z,13.12
2023-05-05T00:56:03.400Z,13.13
2023-05-05T00:56:38.584Z,13.14
2023-05-05T00:57:11.156Z,13.14
2023-05-05T00:57:44.476Z,13.12
2023-05-05T00:58:19.318Z,13.12
2023-05-05T00:58:51.487Z,13.13
2023-05-05T00:59:24.537Z,13.14
2023-05-05T01:00:01.191Z,13.13
2023-05-05T01:00:33.660Z,13.15
2023-05-05T01:01:05.811Z,13.16
2023-05-05T01:01:40.657Z,13.16
2023-05-05T01:02:13.155Z,13.16
2023-05-05T01:02:46.318Z,13.16
2023-05-05T01:03:21.254Z,13.17
2023-05-05T01:03:53.519Z,13.16
2023-05-05T01:04:26.668Z,13.16
2023-05-05T01:05:01.562Z,13.17
2023-05-05T01:05:48.775Z,13.16
2023-05-05T01:06:39.742Z,13.14
2023-05-05T01:07:23.304Z,13.11
2023-05-05T01:08:16.616Z,13.10
2023-05-05T01:09:05.472Z,13.07
2023-05-05T01:09:47.286Z,13.05
2023-05-05T01:10:26.234Z,13.03
2023-05-05T01:11:08.059Z,13.02
2023-05-05T01:11:49.065Z,13.03
2023-05-05T01:12:27.479Z,13.02
2023-05-05T01:13:09.274Z,13.03
2023-05-05T01:13:53.604Z,13.03
2023-05-05T01:14:36.664Z,13.00
2023-05-05T01:15:18.358Z,13.00
2023-05-05T01:15:57.016Z,12.99
2023-05-05T01:16:33.547Z,12.99
2023-05-05T01:17:17.271Z,13.01
2023-05-05T01:18:01.014Z,13.00
2023-05-05T01:18:42.436Z,12.99
2023-05-05T01:19:38.213Z,13.00
2023-05-05T01:20:21.741Z,12.99
2023-05-05T01:21:03.624Z,13.01
2023-05-05T01:21:41.491Z,13.00
2023-05-05T01:22:18.626Z,13.00
2023-05-05T01:22:55.446Z,13.00
2023-05-05T01:23:59.332Z,12.95
2023-05-05T01:24:58.294Z,12.93
2023-05-05T01:26:17.952Z,12.84
2023-05-05T01:27:00.675Z,12.80
2023-05-05T01:27:50.515Z,12.81
2023-05-05T01:28:41.341Z,12.78
2023-05-05T01:29:49.366Z,12.77
2023-05-05T01:30:40.238Z,12.73
2023-05-05T01:31:42.650Z,12.70
2023-05-05T01:32:19.103Z,12.69
2023-05-05T01:32:55.513Z,12.72
2023-05-05T01:33:36.205Z,12.73
2023-05-05T01:34:13.787Z,12.73
2023-05-05T01:35:03.103Z,12.73
2023-05-05T01:35:41.970Z,12.70
2023-05-05T01:36:22.998Z,12.68
2023-05-05T01:37:04.805Z,12.66
2023-05-05T01:37:43.986Z,12.65
2023-05-05T01:38:19.687Z,12.63
2023-05-05T01:39:00.273Z,12.63
2023-05-05T01:39:35.272Z,12.62
2023-05-05T01:40:12.469Z,12.62
2023-05-05T01:40:51.800Z,12.60
2023-05-05T01:41:28.617Z,12.57
2023-05-05T01:42:06.415Z,12.54
2023-05-05T01:42:45.082Z,12.52
2023-05-05T01:43:21.045Z,12.51
2023-05-05T01:43:56.300Z,12.51
2023-05-05T01:44:31.810Z,12.51
2023-05-05T01:45:06.931Z,12.51
2023-05-05T01:45:43.097Z,12.50
2023-05-05T01:46:16.380Z,12.50
2023-05-05T01:46:56.056Z,12.50
2023-05-05T01:47:29.100Z,12.48
2023-05-05T01:48:02.361Z,12.50
2023-05-05T01:48:37.699Z,12.50
2023-05-05T01:49:12.025Z,12.50
2023-05-05T01:49:46.833Z,12.51
2023-05-05T01:50:23.171Z,12.52
2023-05-05T01:50:56.292Z,12.51
2023-05-05T01:51:29.749Z,12.53
2023-05-05T01:52:06.463Z,12.52
2023-05-05T01:52:41.513Z,12.51
2023-05-05T01:53:15.071Z,12.51
2023-05-05T01:53:50.574Z,12.51
2023-05-05T01:54:24.819Z,12.52
2023-05-05T01:54:58.753Z,12.52
2023-05-05T01:55:33.910Z,12.52
2023-05-05T01:56:09.824Z,12.52
2023-05-05T01:56:43.458Z,12.53
2023-05-05T01:57:16.807Z,12.53
2023-05-05T01:57:52.979Z,12.53
2023-05-05T01:58:26.621Z,12.54
2023-05-05T01:59:01.551Z,12.52
2023-05-05T01:59:37.171Z,12.52
2023-05-05T02:00:11.658Z,12.54
2023-05-05T02:00:52.043Z,12.51
2023-05-05T02:01:29.341Z,12.51
2023-05-05T02:02:04.945Z,12.50
2023-05-05T02:02:39.489Z,12.51
2023-05-05T02:03:18.354Z,12.50
2023-05-05T02:03:52.905Z,12.49
2023-05-05T02:04:28.519Z,12.51
2023-05-05T02:05:06.423Z,12.50
2023-05-05T02:05:40.217Z,12.51
2023-05-05T02:06:13.318Z,12.51
2023-05-05T02:06:51.797Z,12.53
2023-05-05T02:07:24.663Z,12.51
2023-05-05T02:07:59.853Z,12.53
2023-05-05T02:08:36.229Z,12.52
2023-05-05T02:09:11.858Z,12.51
2023-05-05T02:09:45.330Z,12.51
2023-05-05T02:10:17.956Z,12.50
2023-05-05T02:10:53.390Z,12.49
2023-05-05T02:11:28.367Z,12.46
2023-05-05T02:12:04.184Z,12.46
2023-05-05T02:12:42.552Z,12.45
2023-05-05T02:13:16.239Z,12.43
2023-05-05T02:13:50.314Z,12.43
2023-05-05T02:14:26.725Z,12.43
2023-05-05T02:15:01.663Z,12.42
2023-05-05T02:15:38.666Z,12.41
2023-05-05T02:16:13.219Z,12.39
2023-05-05T02:16:46.090Z,12.38
2023-05-05T02:17:26.008Z,12.38
2023-05-05T02:17:59.672Z,12.39
2023-05-05T02:18:35.974Z,12.39
2023-05-05T02:19:09.096Z,12.39
2023-05-05T02:19:48.052Z,12.40
2023-05-05T02:20:21.423Z,12.38
2023-05-05T02:20:53.837Z,12.38
2023-05-05T02:21:28.764Z,12.36
2023-05-05T02:22:01.131Z,12.35
2023-05-05T02:22:33.591Z,12.36
2023-05-05T02:23:10.142Z,12.38
2023-05-05T02:23:42.512Z,12.34
2023-05-05T02:24:14.709Z,12.32
2023-05-05T02:24:49.694Z,12.33
2023-05-05T02:25:26.185Z,12.34
2023-05-05T02:26:03.901Z,12.34
2023-05-05T02:26:43.099Z,12.34
2023-05-05T02:27:18.100Z,12.34
2023-05-05T02:27:53.550Z,12.33
2023-05-05T02:28:35.523Z,12.33
2023-05-05T02:29:11.040Z,12.30
2023-05-05T02:29:48.347Z,12.29
2023-05-05T02:30:24.229Z,12.28
2023-05-05T02:30:59.790Z,12.29
2023-05-05T02:31:38.720Z,12.29
2023-05-05T02:32:19.933Z,12.30
2023-05-05T02:33:00.432Z,12.30
2023-05-05T02:33:35.702Z,12.30
2023-05-05T02:34:11.670Z,12.34
2023-05-05T02:34:46.506Z,12.35
2023-05-05T02:35:27.204Z,12.35
2023-05-05T02:36:10.413Z,12.35
2023-05-05T02:36:51.601Z,12.33
2023-05-05T02:37:30.121Z,12.34
2023-05-05T02:38:08.172Z,12.35
2023-05-05T02:38:46.634Z,12.33
2023-05-05T02:39:25.235Z,12.34
2023-05-05T02:40:05.051Z,12.34
2023-05-05T02:40:42.599Z,12.29
2023-05-05T02:41:20.523Z,12.28
2023-05-05T02:41:57.399Z,12.27
2023-05-05T02:42:35.748Z,12.26
2023-05-05T02:43:11.571Z,12.26
2023-05-05T02:43:47.273Z,12.27
2023-05-05T02:44:23.593Z,12.27
2023-05-05T02:44:59.567Z,12.26
2023-05-05T02:45:35.036Z,12.26
2023-05-05T02:46:08.035Z,12.25
2023-05-05T02:46:42.910Z,12.23
2023-05-05T02:47:17.681Z,12.19
2023-05-05T02:47:50.046Z,12.22
2023-05-05T02:48:25.022Z,12.23
2023-05-05T02:49:01.812Z,12.24
2023-05-05T02:49:34.335Z,12.24
2023-05-05T02:50:08.935Z,12.26
2023-05-05T02:50:46.595Z,12.28
2023-05-05T02:51:25.700Z,12.27
2023-05-05T02:51:58.245Z,12.30
2023-05-05T02:52:33.956Z,12.31
2023-05-05T02:53:08.898Z,12.31
2023-05-05T02:53:41.341Z,12.32
2023-05-05T02:54:13.634Z,12.32
2023-05-05T02:54:48.515Z,12.31
2023-05-05T02:55:23.533Z,12.28
2023-05-05T02:56:02.208Z,12.26
2023-05-05T02:56:45.806Z,12.22
2023-05-05T02:57:20.691Z,12.20
2023-05-05T02:58:04.891Z,12.19
2023-05-05T02:58:49.170Z,12.20
2023-05-05T02:59:31.921Z,12.20
2023-05-05T03:00:14.226Z,12.19
2023-05-05T03:00:56.376Z,12.18
2023-05-05T03:01:40.641Z,12.16
2023-05-05T03:02:21.218Z,12.16
2023-05-05T03:03:05.997Z,12.17
2023-05-05T03:03:52.060Z,12.15
2023-05-05T03:04:32.192Z,12.14
2023-05-05T03:05:13.112Z,12.14
2023-05-05T03:06:14.058Z,12.09
2023-05-05T03:06:51.334Z,12.07
2023-05-05T03:07:31.068Z,12.08
2023-05-05T03:08:13.747Z,12.07
2023-05-05T03:08:52.921Z,12.07
2023-05-05T03:09:31.196Z,12.04
2023-05-05T03:10:12.064Z,12.04
2023-05-05T03:10:57.763Z,12.03
2023-05-05T03:11:35.746Z,12.03
2023-05-05T03:12:16.701Z,12.03
2023-05-05T03:13:12.895Z,11.99
2023-05-05T03:13:51.688Z,12.01
2023-05-05T03:14:33.502Z,12.01
2023-05-05T03:15:09.451Z,12.01
2023-05-05T03:15:45.058Z,12.00
2023-05-05T03:16:22.086Z,11.99
2023-05-05T03:16:56.842Z,11.99
2023-05-05T03:17:31.284Z,11.99
2023-05-05T03:18:09.252Z,12.01
2023-05-05T03:18:45.915Z,12.02
2023-05-05T03:19:19.914Z,12.03
2023-05-05T03:19:58.456Z,12.02
2023-05-05T03:20:31.370Z,12.03
2023-05-05T03:21:09.759Z,12.02
2023-05-05T03:21:47.921Z,12.03
2023-05-05T03:22:20.329Z,12.04
2023-05-05T03:22:53.548Z,12.04
2023-05-05T03:23:28.608Z,12.06
2023-05-05T03:24:12.827Z,12.06
2023-05-05T03:24:52.867Z,12.05
2023-05-05T03:25:42.675Z,12.03
2023-05-05T03:26:20.557Z,12.04
2023-05-05T03:26:53.732Z,12.05
2023-05-05T03:27:31.510Z,12.05
2023-05-05T03:28:04.276Z,12.05
2023-05-05T03:28:36.570Z,12.06
2023-05-05T03:29:19.131Z,12.05
2023-05-05T03:29:51.295Z,12.06
2023-05-05T03:30:23.725Z,12.09
2023-05-05T03:31:00.155Z,12.07
2023-05-05T03:31:32.815Z,12.07
2023-05-05T03:32:07.962Z,12.08
2023-05-05T03:32:42.874Z,12.07
2023-05-05T03:33:16.700Z,12.07
2023-05-05T03:33:51.549Z,12.07
2023-05-05T03:34:29.008Z,12.06
2023-05-05T03:35:03.249Z,12.06
2023-05-05T03:35:38.579Z,12.07
2023-05-05T03:36:15.962Z,12.07
2023-05-05T03:36:48.285Z,12.07
2023-05-05T03:37:21.731Z,12.10
2023-05-05T03:37:56.536Z,12.10
2023-05-05T03:38:28.702Z,12.09
2023-05-05T03:39:00.950Z,12.08
2023-05-05T03:39:38.958Z,12.08
2023-05-05T03:40:12.988Z,12.05
2023-05-05T03:40:45.148Z,12.03
2023-05-05T03:41:25.076Z,12.03
2023-05-05T03:41:57.772Z,12.02
2023-05-05T03:42:33.371Z,12.03
2023-05-05T03:43:08.300Z,12.03
2023-05-05T03:43:41.536Z,12.03
2023-05-05T03:44:14.118Z,12.05
2023-05-05T03:44:49.511Z,12.05
2023-05-05T03:45:22.251Z,12.05
2023-05-05T03:45:54.519Z,12.05
2023-05-05T03:46:29.532Z,12.06
2023-05-05T03:47:01.675Z,12.06
2023-05-05T03:47:35.951Z,12.05
2023-05-05T03:48:11.681Z,12.07
2023-05-05T03:48:45.587Z,12.07
2023-05-05T03:49:20.721Z,12.09
2023-05-05T03:49:56.431Z,12.10
2023-05-05T03:50:28.603Z,12.09
2023-05-05T03:51:01.127Z,12.09
2023-05-05T03:51:38.682Z,12.10
2023-05-05T03:52:12.188Z,12.10
2023-05-05T03:52:46.002Z,12.11
2023-05-05T03:53:21.344Z,12.13
2023-05-05T03:53:54.336Z,12.11
2023-05-05T03:54:27.400Z,12.12
2023-05-05T03:55:02.315Z,12.13
2023-05-05T03:55:34.725Z,12.13
2023-05-05T03:56:07.243Z,12.16
2023-05-05T03:56:42.115Z,12.14
2023-05-05T03:57:14.246Z,12.15
2023-05-05T03:57:46.555Z,12.15
2023-05-05T03:58:18.867Z,12.16
2023-05-05T03:58:53.613Z,12.17
2023-05-05T03:59:26.166Z,12.14
2023-05-05T04:00:01.124Z,12.14
2023-05-05T04:00:33.403Z,12.13
2023-05-05T04:01:05.663Z,12.11
2023-05-05T04:01:40.464Z,12.09
2023-05-05T04:02:12.828Z,12.07
2023-05-05T04:02:45.952Z,12.05
2023-05-05T04:03:23.181Z,12.02
2023-05-05T04:03:56.495Z,12.00
2023-05-05T04:04:31.365Z,11.96
2023-05-05T04:05:06.801Z,11.93
2023-05-05T04:05:39.000Z,11.89
2023-05-05T04:06:11.748Z,11.88
2023-05-05T04:06:46.539Z,11.84
2023-05-05T04:07:19.508Z,11.85
2023-05-05T04:07:51.740Z,11.84
2023-05-05T04:08:27.103Z,11.81
2023-05-05T04:08:59.291Z,11.77
2023-05-05T04:09:31.569Z,11.75
2023-05-05T04:10:06.786Z,11.70
2023-05-05T04:10:39.331Z,11.66
2023-05-05T04:11:11.565Z,11.63
2023-05-05T04:11:46.924Z,11.62
2023-05-05T04:12:19.260Z,11.59
2023-05-05T04:12:51.496Z,11.58
2023-05-05T04:13:26.501Z,11.58
2023-05-05T04:13:58.700Z,11.57
2023-05-05T04:14:32.942Z,11.57
2023-05-05T04:15:09.686Z,11.58
2023-05-05T04:15:45.203Z,11.58
2023-05-05T04:16:17.833Z,11.58
2023-05-05T04:16:52.711Z,11.60
2023-05-05T04:17:25.330Z,11.62
2023-05-05T04:17:57.727Z,11.62
2023-05-05T04:18:33.096Z,11.64
2023-05-05T04:19:05.382Z,11.66
2023-05-05T04:19:40.859Z,11.69
2023-05-05T04:20:13.931Z,11.70
2023-05-05T04:20:49.557Z,11.71
2023-05-05T04:21:21.932Z,11.70
2023-05-05T04:21:54.254Z,11.73
2023-05-05T04:22:29.007Z,11.74
2023-05-05T04:23:01.689Z,11.74
2023-05-05T04:23:34.023Z,11.76
2023-05-05T04:24:09.795Z,11.78
2023-05-05T04:24:42.189Z,11.79
2023-05-05T04:25:14.816Z,11.80
2023-05-05T04:25:49.608Z,11.82
2023-05-05T04:26:22.036Z,11.82
2023-05-05T04:26:54.687Z,11.84
2023-05-05T04:27:30.540Z,11.86
2023-05-05T04:28:05.392Z,11.87
2023-05-05T04:28:38.058Z,11.90
2023-05-05T04:29:12.772Z,11.93
2023-05-05T04:29:44.904Z,11.94
2023-05-05T04:30:17.474Z,11.96
2023-05-05T04:30:53.163Z,11.96
2023-05-05T04:31:25.473Z,11.96
2023-05-05T04:31:57.712Z,11.97
2023-05-05T04:32:32.587Z,11.99
2023-05-05T04:33:05.178Z,12.00
2023-05-05T04:33:37.992Z,12.01
2023-05-05T04:34:13.009Z,12.01
2023-05-05T04:34:48.034Z,12.02
2023-05-05T04:35:20.231Z,12.02
2023-05-05T04:35:55.122Z,12.02
2023-05-05T04:36:27.723Z,12.03
2023-05-05T04:37:00.205Z,12.03
2023-05-05T04:37:32.505Z,12.03
2023-05-05T04:38:07.816Z,12.03
2023-05-05T04:38:40.126Z,12.02
2023-05-05T04:39:12.347Z,12.03
2023-05-05T04:39:47.154Z,12.03
2023-05-05T04:40:19.461Z,12.03
2023-05-05T04:40:54.239Z,12.04
2023-05-05T04:41:28.253Z,12.04
2023-05-05T04:42:02.645Z,12.05
2023-05-05T04:42:35.208Z,12.06
2023-05-05T04:43:10.433Z,12.06
2023-05-05T04:43:42.673Z,12.07
2023-05-05T04:44:14.992Z,12.06
2023-05-05T04:44:50.330Z,12.07
2023-05-05T04:45:22.652Z,12.07
2023-05-05T04:45:55.955Z,12.07
2023-05-05T04:46:35.087Z,12.08
2023-05-05T04:47:07.404Z,12.07
2023-05-05T04:47:40.189Z,12.08
2023-05-05T04:48:15.739Z,12.07
2023-05-05T04:48:48.012Z,12.08
2023-05-05T04:49:20.261Z,12.10
2023-05-05T04:49:58.260Z,12.14
2023-05-05T04:50:30.485Z,12.10
2023-05-05T04:51:05.060Z,12.13
2023-05-05T04:51:43.520Z,12.13
2023-05-05T04:52:15.789Z,12.10
2023-05-05T04:52:48.077Z,12.08
2023-05-05T04:53:22.839Z,12.07
2023-05-05T04:53:55.435Z,12.06
2023-05-05T04:54:27.657Z,12.06
2023-05-05T04:55:02.578Z,12.08
2023-05-05T04:55:34.958Z,12.06
2023-05-05T04:56:07.442Z,12.06
2023-05-05T04:56:42.167Z,12.06
2023-05-05T04:57:14.921Z,12.06
2023-05-05T04:57:48.024Z,12.07
2023-05-05T04:58:22.831Z,12.08
2023-05-05T04:58:55.030Z,12.09
2023-05-05T04:59:27.159Z,12.11
2023-05-05T05:00:04.918Z,12.14
2023-05-05T05:00:37.585Z,12.15
2023-05-05T05:01:12.347Z,12.18
2023-05-05T05:01:45.301Z,12.19
2023-05-05T05:02:17.561Z,12.21
2023-05-05T05:02:49.954Z,12.23
2023-05-05T05:03:24.778Z,12.27
2023-05-05T05:03:57.379Z,12.27
2023-05-05T05:04:32.348Z,12.29
2023-05-05T05:05:08.243Z,12.31
2023-05-05T05:05:40.374Z,12.31
2023-05-05T05:06:16.222Z,12.33
2023-05-05T05:06:48.832Z,12.35
2023-05-05T05:07:21.545Z,12.36
2023-05-05T05:07:56.270Z,12.36
2023-05-05T05:08:28.964Z,12.37
2023-05-05T05:09:01.191Z,12.40
2023-05-05T05:09:34.352Z,12.42
2023-05-05T05:10:10.471Z,12.42
2023-05-05T05:10:43.791Z,12.43
2023-05-05T05:11:15.970Z,12.45
2023-05-05T05:11:50.852Z,12.45
2023-05-05T05:12:23.116Z,12.47
2023-05-05T05:12:56.086Z,12.50
2023-05-05T05:13:30.882Z,12.50
2023-05-05T05:14:03.081Z,12.54
2023-05-05T05:14:37.333Z,12.57
2023-05-05T05:15:13.528Z,12.60
2023-05-05T05:15:45.889Z,12.62
2023-05-05T05:16:18.098Z,12.65
2023-05-05T05:16:53.187Z,12.67
2023-05-05T05:17:27.727Z,12.68
2023-05-05T05:18:00.375Z,12.70
2023-05-05T05:18:35.411Z,12.71
2023-05-05T05:19:07.893Z,12.73
2023-05-05T05:19:40.094Z,12.75
2023-05-05T05:20:17.846Z,12.77
2023-05-05T05:20:50.293Z,12.77
2023-05-05T05:21:22.507Z,12.81
2023-05-05T05:21:57.525Z,12.81
2023-05-05T05:22:29.687Z,12.82
2023-05-05T05:23:02.553Z,12.83
2023-05-05T05:23:39.338Z,12.86
2023-05-05T05:24:12.487Z,12.86
2023-05-05T05:24:44.737Z,12.88
2023-05-05T05:25:20.729Z,12.91
2023-05-05T05:25:53.767Z,12.93
2023-05-05T05:26:27.670Z,12.94
2023-05-05T05:27:03.007Z,12.95
2023-05-05T05:27:35.242Z,12.93
2023-05-05T05:28:10.627Z,12.93
2023-05-05T05:28:51.887Z,12.91
2023-05-05T05:29:24.448Z,12.90
2023-05-05T05:29:56.604Z,12.91
2023-05-05T05:30:33.091Z,12.93
2023-05-05T05:31:05.518Z,12.95
2023-05-05T05:31:40.424Z,12.97
2023-05-05T05:32:12.970Z,12.97
2023-05-05T05:32:45.212Z,12.99
2023-05-05T05:33:20.072Z,13.00
2023-05-05T05:33:52.747Z,12.99
2023-05-05T05:34:25.021Z,12.99
2023-05-05T05:35:00.037Z,13.00
2023-05-05T05:35:35.006Z,13.01
2023-05-05T05:36:07.511Z,13.02
2023-05-05T05:36:42.274Z,13.03
2023-05-05T05:37:14.641Z,13.06
2023-05-05T05:37:47.902Z,13.08
2023-05-05T05:38:22.820Z,13.07
2023-05-05T05:38:58.417Z,13.07
2023-05-05T05:39:30.808Z,13.06
2023-05-05T05:40:05.748Z,13.07
2023-05-05T05:40:39.632Z,13.08
2023-05-05T05:41:14.533Z,13.09
2023-05-05T05:41:46.737Z,13.10
2023-05-05T05:42:18.998Z,13.12
2023-05-05T05:42:53.794Z,13.14
2023-05-05T05:43:26.038Z,13.18
2023-05-05T05:43:58.242Z,13.17
2023-05-05T05:44:33.332Z,13.21
2023-05-05T05:45:07.828Z,13.23
2023-05-05T05:45:43.160Z,13.26
2023-05-05T05:46:15.687Z,13.28
2023-05-05T05:46:51.065Z,13.30
2023-05-05T05:47:24.004Z,13.30
2023-05-05T05:47:56.517Z,13.32
2023-05-05T05:48:31.502Z,13.35
2023-05-05T05:49:04.757Z,13.36
2023-05-05T05:49:37.229Z,13.39
2023-05-05T05:50:12.422Z,13.42
2023-05-05T05:50:47.215Z,13.43
2023-05-05T05:51:19.455Z,13.45
2023-05-05T05:51:55.570Z,13.48
2023-05-05T05:52:28.085Z,13.47
2023-05-05T05:53:00.271Z,13.51
2023-05-05T05:53:35.819Z,13.52
2023-05-05T05:54:08.070Z,13.52
2023-05-05T05:54:40.793Z,13.54
2023-05-05T05:55:16.421Z,13.54
2023-05-05T05:55:48.839Z,13.54
2023-05-05T05:56:21.733Z,13.53
2023-05-05T05:56:56.543Z,13.52
2023-05-05T05:57:28.734Z,13.51
2023-05-05T05:58:01.022Z,13.51
2023-05-05T05:58:36.358Z,13.52
2023-05-05T05:59:10.252Z,13.55
2023-05-05T05:59:43.802Z,13.57
2023-05-05T06:00:19.524Z,13.59
2023-05-05T06:00:56.695Z,13.60
2023-05-05T06:01:28.902Z,13.63
2023-05-05T06:02:04.712Z,13.68
2023-05-05T06:02:38.241Z,13.70
2023-05-05T06:03:14.987Z,13.74
2023-05-05T06:03:47.479Z,13.76
2023-05-05T06:04:19.730Z,13.80
2023-05-05T06:04:54.682Z,13.83
2023-05-05T06:05:27.157Z,13.85
2023-05-05T06:06:02.409Z,13.86
2023-05-05T06:06:37.343Z,13.85
2023-05-05T06:07:09.487Z,13.86
2023-05-05T06:07:41.966Z,13.88
2023-05-05T06:08:17.363Z,13.87
2023-05-05T06:08:54.075Z,13.86
2023-05-05T06:09:26.630Z,13.84
2023-05-05T06:10:14.522Z,13.86
2023-05-05T06:10:51.705Z,13.86
2023-05-05T06:11:28.187Z,13.88
2023-05-05T06:12:00.339Z,13.90
2023-05-05T06:12:32.684Z,13.94
2023-05-05T06:13:07.970Z,13.95
2023-05-05T06:13:42.773Z,13.98
2023-05-05T06:14:15.058Z,14.02
2023-05-05T06:14:49.952Z,14.08
2023-05-05T06:15:22.242Z,14.13
2023-05-05T06:15:54.509Z,14.17
2023-05-05T06:16:29.379Z,14.19
2023-05-05T06:17:05.654Z,14.18
2023-05-05T06:17:38.785Z,14.22
2023-05-05T06:18:14.065Z,14.27
2023-05-05T06:18:46.735Z,14.30
2023-05-05T06:19:21.683Z,14.35
2023-05-05T06:19:54.646Z,14.39
2023-05-05T06:20:27.069Z,14.41
2023-05-05T06:21:05.011Z,14.45
2023-05-05T06:21:37.492Z,14.47
2023-05-05T06:22:09.806Z,14.50
2023-05-05T06:22:45.013Z,14.54
2023-05-05T06:23:17.587Z,14.56
2023-05-05T06:23:57.219Z,14.59
2023-05-05T06:24:29.623Z,14.60
2023-05-05T06:25:01.955Z,14.61
2023-05-05T06:25:36.870Z,14.64
2023-05-05T06:26:09.328Z,14.65
2023-05-05T06:26:44.833Z,14.68
2023-05-05T06:27:16.962Z,14.73
2023-05-05T06:27:49.136Z,14.77
2023-05-05T06:28:24.137Z,14.83
2023-05-05T06:28:56.269Z,14.86
2023-05-05T06:29:28.920Z,14.91
2023-05-05T06:30:03.778Z,14.96
2023-05-05T06:30:36.117Z,15.00
2023-05-05T06:31:13.076Z,15.05
2023-05-05T06:31:45.341Z,15.10
2023-05-05T06:32:17.557Z,15.15
2023-05-05T06:32:54.466Z,15.19
2023-05-05T06:33:26.995Z,15.20
2023-05-05T06:33:59.249Z,15.22
2023-05-05T06:34:33.967Z,15.23
2023-05-05T06:35:07.800Z,15.28
2023-05-05T06:35:39.971Z,15.30
2023-05-05T06:36:17.317Z,15.32
2023-05-05T06:36:49.710Z,15.28
2023-05-05T06:37:21.886Z,15.30
2023-05-05T06:37:56.579Z,15.32
2023-05-05T06:38:28.819Z,15.32
2023-05-05T06:39:03.566Z,15.34
2023-05-05T06:39:36.477Z,15.34
2023-05-05T06:40:13.174Z,15.37
2023-05-05T06:40:47.300Z,15.37
2023-05-05T06:41:19.477Z,15.37
2023-05-05T06:41:54.214Z,15.38
2023-05-05T06:42:26.387Z,15.39
2023-05-05T06:42:59.022Z,15.43
2023-05-05T06:43:39.931Z,15.47
2023-05-05T06:44:17.082Z,15.50
2023-05-05T06:44:49.226Z,15.54
2023-05-05T06:45:24.125Z,15.57
2023-05-05T06:45:56.359Z,15.61
2023-05-05T06:46:28.580Z,15.64
2023-05-05T06:47:03.323Z,15.67
2023-05-05T06:47:36.093Z,15.71
2023-05-05T06:48:11.210Z,15.74
2023-05-05T06:48:43.352Z,15.76
2023-05-05T06:49:15.487Z,15.78
2023-05-05T06:49:50.364Z,15.82
2023-05-05T06:50:22.580Z,15.81
2023-05-05T06:50:55.186Z,15.86
2023-05-05T06:51:33.277Z,15.89
2023-05-05T06:52:05.706Z,15.90
2023-05-05T06:52:37.917Z,15.93
2023-05-05T06:53:12.664Z,15.97
2023-05-05T06:53:44.935Z,16.00
2023-05-05T06:54:17.394Z,16.01
2023-05-05T06:54:52.178Z,16.03
2023-05-05T06:55:25.153Z,16.06
2023-05-05T06:55:59.842Z,16.07
2023-05-05T06:56:32.602Z,16.08
2023-05-05T06:57:04.901Z,16.12
2023-05-05T06:57:39.637Z,16.14
2023-05-05T06:58:12.127Z,16.17
2023-05-05T06:58:44.280Z,16.21
2023-05-05T06:59:19.082Z,16.24
2023-05-05T06:59:51.336Z,16.25
2023-05-05T07:00:26.849Z,16.28
2023-05-05T07:00:59.079Z,16.29
2023-05-05T07:01:33.844Z,16.29
2023-05-05T07:02:06.673Z,16.32
2023-05-05T07:02:39.013Z,16.32
2023-05-05T07:03:13.912Z,16.35
2023-05-05T07:03:46.197Z,16.35
2023-05-05T07:04:18.633Z,16.36
2023-05-05T07:04:55.610Z,16.36
2023-05-05T07:05:27.842Z,16.37
2023-05-05T07:06:02.584Z,16.39
2023-05-05T07:06:37.383Z,16.40
2023-05-05T07:07:12.202Z,16.42
2023-05-05T07:07:51.832Z,16.45
2023-05-05T07:08:27.756Z,16.46
2023-05-05T07:09:00.028Z,16.47
2023-05-05T07:09:34.776Z,16.51
2023-05-05T07:10:09.943Z,16.54
2023-05-05T07:10:42.995Z,16.56
2023-05-05T07:11:17.814Z,16.59
2023-05-05T07:11:50.046Z,16.61
2023-05-05T07:12:22.424Z,16.61
2023-05-05T07:12:57.816Z,16.60
2023-05-05T07:13:30.054Z,16.64
2023-05-05T07:14:04.844Z,16.64
2023-05-05T07:14:37.009Z,16.65
2023-05-05T07:15:26.025Z,16.65
2023-05-05T07:15:59.894Z,16.61
2023-05-05T07:16:34.965Z,16.63
2023-05-05T07:17:07.134Z,16.65
2023-05-05T07:17:39.315Z,16.66
2023-05-05T07:18:14.047Z,16.67
2023-05-05T07:18:46.314Z,16.69
2023-05-05T07:19:18.465Z,16.71
2023-05-05T07:19:55.180Z,16.73
2023-05-05T07:20:27.648Z,16.75
2023-05-05T07:20:59.889Z,16.78
2023-05-05T07:21:35.292Z,16.78
2023-05-05T07:22:10.019Z,16.80
2023-05-05T07:22:42.420Z,16.82
2023-05-05T07:23:17.202Z,16.82
2023-05-05T07:23:49.347Z,16.81
2023-05-05T07:24:21.546Z,16.82
2023-05-05T07:24:56.322Z,16.81
2023-05-05T07:25:29.059Z,16.81
2023-05-05T07:26:04.022Z,16.76
2023-05-05T07:26:36.439Z,16.78
2023-05-05T07:27:08.856Z,16.74
2023-05-05T07:27:43.781Z,16.70
2023-05-05T07:28:16.105Z,16.66
2023-05-05T07:28:52.166Z,16.64
2023-05-05T07:29:24.303Z,16.62
2023-05-05T07:29:56.792Z,16.62
2023-05-05T07:30:31.526Z,16.62
2023-05-05T07:31:03.810Z,16.62
2023-05-05T07:31:36.019Z,16.62
2023-05-05T07:32:10.790Z,16.64
2023-05-05T07:32:43.267Z,16.66
2023-05-05T07:33:18.698Z,16.69